sensor_id;sensor_type;location;lat;lon;timestamp;temperature;humidity
2893;DHT22;1456;51.840;12.184;2023-03-07T00:00:58;-0.20;99.90
2893;DHT22;1456;51.840;12.184;2023-03-07T00:03:25;-0.20;99.90
2893;DHT22;1456;51.840;12.184;2023-03-07T00:06:03;-0.20;99.90
2893;DHT22;1456;51.840;12.184;2023-03-07T00:08:29;-0.20;99.90
2893;DHT22;1456;51.840;12.184;2023-03-07T00:10:59;-0.10;99.90
2893;DHT22;1456;51.840;12.184;2023-03-07T00:13:30;0.00;99.90
2893;DHT22;1456;51.840;12.184;2023-03-07T00:16:07;0.00;99.90
2893;DHT22;1456;51.840;12.184;2023-03-07T00:18:34;-0.10;99.90
2893;DHT22;1456;51.840;12.184;2023-03-07T00:21:04;-0.10;99.90
2893;DHT22;1456;51.840;12.184;2023-03-07T00:23:32;0.00;99.90
2893;DHT22;1456;51.840;12.184;2023-03-07T00:26:05;0.20;99.90
2893;DHT22;1456;51.840;12.184;2023-03-07T00:28:31;0.10;99.90
2893;DHT22;1456;51.840;12.184;2023-03-07T00:31:05;0.10;99.90
2893;DHT22;1456;51.840;12.184;2023-03-07T00:33:32;0.10;99.90
2893;DHT22;1456;51.840;12.184;2023-03-07T00:36:01;0.10;99.90
2893;DHT22;1456;51.840;12.184;2023-03-07T00:38:29;0.30;99.90
2893;DHT22;1456;51.840;12.184;2023-03-07T00:41:05;0.30;99.90
2893;DHT22;1456;51.840;12.184;2023-03-07T00:43:31;0.30;99.90
2893;DHT22;1456;51.840;12.184;2023-03-07T00:45:58;0.30;99.90
2893;DHT22;1456;51.840;12.184;2023-03-07T00:48:25;0.30;99.90
2893;DHT22;1456;51.840;12.184;2023-03-07T00:50:51;0.40;99.90
2893;DHT22;1456;51.840;12.184;2023-03-07T00:53:18;0.30;99.90
2893;DHT22;1456;51.840;12.184;2023-03-07T00:55:58;0.40;99.90
2893;DHT22;1456;51.840;12.184;2023-03-07T00:58:25;0.50;99.90
2893;DHT22;1456;51.840;12.184;2023-03-07T01:00:54;0.50;99.90
2893;DHT22;1456;51.840;12.184;2023-03-07T01:03:20;0.60;99.90
2893;DHT22;1456;51.840;12.184;2023-03-07T01:05:47;0.50;99.90
2893;DHT22;1456;51.840;12.184;2023-03-07T01:08:13;0.70;99.90
2893;DHT22;1456;51.840;12.184;2023-03-07T01:10:42;0.60;99.90
2893;DHT22;1456;51.840;12.184;2023-03-07T01:13:10;0.60;99.90
2893;DHT22;1456;51.840;12.184;2023-03-07T01:15:36;0.50;99.90
2893;DHT22;1456;51.840;12.184;2023-03-07T01:18:06;0.50;99.90
2893;DHT22;1456;51.840;12.184;2023-03-07T01:20:33;0.50;99.90
2893;DHT22;1456;51.840;12.184;2023-03-07T01:22:59;0.50;99.90
2893;DHT22;1456;51.840;12.184;2023-03-07T01:25:27;0.50;99.90
2893;DHT22;1456;51.840;12.184;2023-03-07T01:27:53;0.50;99.90
2893;DHT22;1456;51.840;12.184;2023-03-07T01:30:26;0.60;99.90
2893;DHT22;1456;51.840;12.184;2023-03-07T01:32:55;0.60;99.90
2893;DHT22;1456;51.840;12.184;2023-03-07T01:35:20;0.50;99.90
2893;DHT22;1456;51.840;12.184;2023-03-07T01:37:50;0.60;99.90
2893;DHT22;1456;51.840;12.184;2023-03-07T01:40:17;0.50;99.90
2893;DHT22;1456;51.840;12.184;2023-03-07T01:42:43;0.50;99.90
2893;DHT22;1456;51.840;12.184;2023-03-07T01:47:41;0.60;99.90
2893;DHT22;1456;51.840;12.184;2023-03-07T01:50:14;0.60;99.90
2893;DHT22;1456;51.840;12.184;2023-03-07T01:52:43;0.60;99.90
2893;DHT22;1456;51.840;12.184;2023-03-07T01:55:16;0.60;99.90
2893;DHT22;1456;51.840;12.184;2023-03-07T01:57:46;0.70;99.90
2893;DHT22;1456;51.840;12.184;2023-03-07T02:00:17;0.70;99.90
2893;DHT22;1456;51.840;12.184;2023-03-07T02:02:54;0.70;99.90
2893;DHT22;1456;51.840;12.184;2023-03-07T02:05:28;0.80;99.90
2893;DHT22;1456;51.840;12.184;2023-03-07T02:07:56;0.70;99.90
2893;DHT22;1456;51.840;12.184;2023-03-07T02:10:24;0.80;99.90
2893;DHT22;1456;51.840;12.184;2023-03-07T02:12:52;0.90;99.90
2893;DHT22;1456;51.840;12.184;2023-03-07T02:15:18;0.90;99.90
2893;DHT22;1456;51.840;12.184;2023-03-07T02:17:44;0.80;99.90
2893;DHT22;1456;51.840;12.184;2023-03-07T02:23:01;0.90;99.90
2893;DHT22;1456;51.840;12.184;2023-03-07T02:25:43;0.90;99.90
2893;DHT22;1456;51.840;12.184;2023-03-07T02:28:13;0.90;99.90
2893;DHT22;1456;51.840;12.184;2023-03-07T02:30:53;0.90;99.90
2893;DHT22;1456;51.840;12.184;2023-03-07T02:33:20;1.00;99.90
2893;DHT22;1456;51.840;12.184;2023-03-07T02:35:59;1.00;99.90
2893;DHT22;1456;51.840;12.184;2023-03-07T02:38:26;1.10;99.90
2893;DHT22;1456;51.840;12.184;2023-03-07T02:40:54;1.10;99.90
2893;DHT22;1456;51.840;12.184;2023-03-07T02:43:21;1.20;99.90
2893;DHT22;1456;51.840;12.184;2023-03-07T02:45:47;1.20;99.90
2893;DHT22;1456;51.840;12.184;2023-03-07T02:48:14;1.20;99.90
2893;DHT22;1456;51.840;12.184;2023-03-07T02:50:39;1.20;99.90
2893;DHT22;1456;51.840;12.184;2023-03-07T02:53:05;1.40;99.90
2893;DHT22;1456;51.840;12.184;2023-03-07T02:55:31;1.30;99.90
2893;DHT22;1456;51.840;12.184;2023-03-07T02:57:58;1.40;99.90
2893;DHT22;1456;51.840;12.184;2023-03-07T03:00:24;1.50;99.90
2893;DHT22;1456;51.840;12.184;2023-03-07T03:02:50;1.40;99.90
2893;DHT22;1456;51.840;12.184;2023-03-07T03:05:16;1.50;99.90
2893;DHT22;1456;51.840;12.184;2023-03-07T03:07:43;1.50;99.90
2893;DHT22;1456;51.840;12.184;2023-03-07T03:10:08;1.50;99.90
2893;DHT22;1456;51.840;12.184;2023-03-07T03:12:36;1.50;99.90
2893;DHT22;1456;51.840;12.184;2023-03-07T03:15:02;1.50;99.90
2893;DHT22;1456;51.840;12.184;2023-03-07T03:17:28;1.50;99.90
2893;DHT22;1456;51.840;12.184;2023-03-07T03:19:55;1.40;99.90
2893;DHT22;1456;51.840;12.184;2023-03-07T03:22:21;1.40;99.90
2893;DHT22;1456;51.840;12.184;2023-03-07T03:24:46;1.40;99.90
2893;DHT22;1456;51.840;12.184;2023-03-07T03:27:13;1.40;99.90
2893;DHT22;1456;51.840;12.184;2023-03-07T03:29:39;1.40;99.90
2893;DHT22;1456;51.840;12.184;2023-03-07T03:32:05;1.40;99.90
2893;DHT22;1456;51.840;12.184;2023-03-07T03:34:31;1.40;99.90
2893;DHT22;1456;51.840;12.184;2023-03-07T03:36:57;1.30;99.90
2893;DHT22;1456;51.840;12.184;2023-03-07T03:39:23;1.30;99.90
2893;DHT22;1456;51.840;12.184;2023-03-07T03:41:49;1.20;99.90
2893;DHT22;1456;51.840;12.184;2023-03-07T03:44:14;1.20;99.90
2893;DHT22;1456;51.840;12.184;2023-03-07T03:46:40;1.20;99.90
2893;DHT22;1456;51.840;12.184;2023-03-07T03:49:06;1.30;99.90
2893;DHT22;1456;51.840;12.184;2023-03-07T03:51:31;1.20;99.90
2893;DHT22;1456;51.840;12.184;2023-03-07T03:53:57;1.20;99.90
2893;DHT22;1456;51.840;12.184;2023-03-07T03:56:24;1.20;99.90
2893;DHT22;1456;51.840;12.184;2023-03-07T03:58:51;1.20;99.90
2893;DHT22;1456;51.840;12.184;2023-03-07T04:01:18;1.20;99.90
2893;DHT22;1456;51.840;12.184;2023-03-07T04:03:47;1.20;99.90
2893;DHT22;1456;51.840;12.184;2023-03-07T04:06:24;1.20;99.90
2893;DHT22;1456;51.840;12.184;2023-03-07T04:08:51;1.30;99.90
2893;DHT22;1456;51.840;12.184;2023-03-07T04:11:17;1.40;99.90
2893;DHT22;1456;51.840;12.184;2023-03-07T04:13:43;1.40;99.90
2893;DHT22;1456;51.840;12.184;2023-03-07T04:16:09;1.40;99.90
2893;DHT22;1456;51.840;12.184;2023-03-07T04:18:35;1.50;99.90
2893;DHT22;1456;51.840;12.184;2023-03-07T04:21:03;1.50;99.90
2893;DHT22;1456;51.840;12.184;2023-03-07T04:23:30;1.50;99.90
2893;DHT22;1456;51.840;12.184;2023-03-07T04:25:59;1.50;99.90
2893;DHT22;1456;51.840;12.184;2023-03-07T04:28:28;1.50;99.90
2893;DHT22;1456;51.840;12.184;2023-03-07T04:31:05;1.50;99.90
2893;DHT22;1456;51.840;12.184;2023-03-07T04:33:31;1.50;99.90
2893;DHT22;1456;51.840;12.184;2023-03-07T04:35:57;1.50;99.90
2893;DHT22;1456;51.840;12.184;2023-03-07T04:38:23;1.50;99.90
2893;DHT22;1456;51.840;12.184;2023-03-07T04:40:50;1.40;99.90
2893;DHT22;1456;51.840;12.184;2023-03-07T04:43:15;1.40;99.90
2893;DHT22;1456;51.840;12.184;2023-03-07T04:45:41;1.30;99.90
2893;DHT22;1456;51.840;12.184;2023-03-07T04:48:07;1.30;99.90
2893;DHT22;1456;51.840;12.184;2023-03-07T04:50:33;1.30;99.90
2893;DHT22;1456;51.840;12.184;2023-03-07T04:52:58;1.30;99.90
2893;DHT22;1456;51.840;12.184;2023-03-07T04:55:24;1.40;99.90
2893;DHT22;1456;51.840;12.184;2023-03-07T04:57:52;1.40;99.90
2893;DHT22;1456;51.840;12.184;2023-03-07T05:00:18;1.40;99.90
2893;DHT22;1456;51.840;12.184;2023-03-07T05:02:45;1.40;99.90
2893;DHT22;1456;51.840;12.184;2023-03-07T05:05:15;1.40;99.90
2893;DHT22;1456;51.840;12.184;2023-03-07T05:07:41;1.50;99.90
2893;DHT22;1456;51.840;12.184;2023-03-07T05:10:09;1.50;99.90
2893;DHT22;1456;51.840;12.184;2023-03-07T05:12:35;1.50;99.90
2893;DHT22;1456;51.840;12.184;2023-03-07T05:15:01;1.60;99.90
2893;DHT22;1456;51.840;12.184;2023-03-07T05:17:28;1.60;99.90
2893;DHT22;1456;51.840;12.184;2023-03-07T05:19:55;1.60;99.90
2893;DHT22;1456;51.840;12.184;2023-03-07T05:22:21;1.60;99.90
2893;DHT22;1456;51.840;12.184;2023-03-07T05:24:47;1.70;99.90
2893;DHT22;1456;51.840;12.184;2023-03-07T05:27:13;1.60;99.90
2893;DHT22;1456;51.840;12.184;2023-03-07T05:29:40;1.60;99.90
2893;DHT22;1456;51.840;12.184;2023-03-07T05:32:06;1.60;99.90
2893;DHT22;1456;51.840;12.184;2023-03-07T05:34:32;1.60;99.90
2893;DHT22;1456;51.840;12.184;2023-03-07T05:36:59;1.60;99.90
2893;DHT22;1456;51.840;12.184;2023-03-07T05:39:24;1.60;99.90
2893;DHT22;1456;51.840;12.184;2023-03-07T05:41:51;1.60;99.90
2893;DHT22;1456;51.840;12.184;2023-03-07T05:44:18;1.60;99.90
2893;DHT22;1456;51.840;12.184;2023-03-07T05:46:44;1.60;99.90
2893;DHT22;1456;51.840;12.184;2023-03-07T05:49:10;1.60;99.90
2893;DHT22;1456;51.840;12.184;2023-03-07T05:51:35;1.80;99.90
2893;DHT22;1456;51.840;12.184;2023-03-07T05:54:01;1.60;99.90
2893;DHT22;1456;51.840;12.184;2023-03-07T05:56:27;1.60;99.90
2893;DHT22;1456;51.840;12.184;2023-03-07T05:58:52;1.60;99.90
2893;DHT22;1456;51.840;12.184;2023-03-07T06:01:18;1.60;99.90
2893;DHT22;1456;51.840;12.184;2023-03-07T06:03:45;1.70;99.90
2893;DHT22;1456;51.840;12.184;2023-03-07T06:06:12;1.70;99.90
2893;DHT22;1456;51.840;12.184;2023-03-07T06:08:38;1.80;99.90
2893;DHT22;1456;51.840;12.184;2023-03-07T06:11:05;1.80;99.90
2893;DHT22;1456;51.840;12.184;2023-03-07T06:13:31;1.80;99.90
2893;DHT22;1456;51.840;12.184;2023-03-07T06:15:59;1.80;99.90
2893;DHT22;1456;51.840;12.184;2023-03-07T06:18:25;1.80;99.90
2893;DHT22;1456;51.840;12.184;2023-03-07T06:23:26;1.80;99.90
2893;DHT22;1456;51.840;12.184;2023-03-07T06:25:52;1.90;99.90
2893;DHT22;1456;51.840;12.184;2023-03-07T06:28:20;1.90;99.90
2893;DHT22;1456;51.840;12.184;2023-03-07T06:30:46;1.90;99.90
2893;DHT22;1456;51.840;12.184;2023-03-07T06:33:11;1.90;99.90
2893;DHT22;1456;51.840;12.184;2023-03-07T06:35:38;2.00;99.90
2893;DHT22;1456;51.840;12.184;2023-03-07T06:38:05;2.00;99.90
2893;DHT22;1456;51.840;12.184;2023-03-07T06:40:31;2.00;99.90
2893;DHT22;1456;51.840;12.184;2023-03-07T06:42:57;2.10;99.90
2893;DHT22;1456;51.840;12.184;2023-03-07T06:45:22;2.10;99.90
2893;DHT22;1456;51.840;12.184;2023-03-07T06:47:48;2.10;99.90
2893;DHT22;1456;51.840;12.184;2023-03-07T06:50:14;2.30;99.90
2893;DHT22;1456;51.840;12.184;2023-03-07T06:52:40;2.20;99.90
2893;DHT22;1456;51.840;12.184;2023-03-07T06:55:06;2.30;99.90
2893;DHT22;1456;51.840;12.184;2023-03-07T06:57:33;2.30;99.90
2893;DHT22;1456;51.840;12.184;2023-03-07T06:59:59;2.30;99.90
2893;DHT22;1456;51.840;12.184;2023-03-07T07:02:25;2.40;99.90
2893;DHT22;1456;51.840;12.184;2023-03-07T07:04:51;2.40;99.90
2893;DHT22;1456;51.840;12.184;2023-03-07T07:07:16;2.50;99.90
2893;DHT22;1456;51.840;12.184;2023-03-07T07:09:42;2.50;99.90
2893;DHT22;1456;51.840;12.184;2023-03-07T07:12:07;2.60;99.90
2893;DHT22;1456;51.840;12.184;2023-03-07T07:14:33;2.70;99.90
2893;DHT22;1456;51.840;12.184;2023-03-07T07:16:59;2.70;99.90
2893;DHT22;1456;51.840;12.184;2023-03-07T07:19:26;2.80;99.90
2893;DHT22;1456;51.840;12.184;2023-03-07T07:21:52;2.90;99.90
2893;DHT22;1456;51.840;12.184;2023-03-07T07:24:18;2.90;99.90
2893;DHT22;1456;51.840;12.184;2023-03-07T07:26:44;2.90;99.90
2893;DHT22;1456;51.840;12.184;2023-03-07T07:29:10;2.90;99.90
2893;DHT22;1456;51.840;12.184;2023-03-07T07:31:37;2.90;99.90
2893;DHT22;1456;51.840;12.184;2023-03-07T07:34:03;3.00;99.90
2893;DHT22;1456;51.840;12.184;2023-03-07T07:36:29;3.10;99.90
2893;DHT22;1456;51.840;12.184;2023-03-07T07:38:55;3.20;99.90
2893;DHT22;1456;51.840;12.184;2023-03-07T07:41:21;3.20;99.90
2893;DHT22;1456;51.840;12.184;2023-03-07T07:43:47;3.30;99.90
2893;DHT22;1456;51.840;12.184;2023-03-07T07:46:15;3.40;99.90
2893;DHT22;1456;51.840;12.184;2023-03-07T07:48:40;3.40;99.90
2893;DHT22;1456;51.840;12.184;2023-03-07T07:51:08;3.50;99.90
2893;DHT22;1456;51.840;12.184;2023-03-07T07:53:34;3.50;99.90
2893;DHT22;1456;51.840;12.184;2023-03-07T07:56:01;3.60;99.90
2893;DHT22;1456;51.840;12.184;2023-03-07T07:58:26;3.70;99.90
2893;DHT22;1456;51.840;12.184;2023-03-07T08:00:53;3.70;99.90
2893;DHT22;1456;51.840;12.184;2023-03-07T08:03:20;3.80;99.90
2893;DHT22;1456;51.840;12.184;2023-03-07T08:05:47;3.90;99.90
2893;DHT22;1456;51.840;12.184;2023-03-07T08:08:18;4.00;99.90
2893;DHT22;1456;51.840;12.184;2023-03-07T08:10:47;4.20;99.90
2893;DHT22;1456;51.840;12.184;2023-03-07T08:13:14;4.20;99.90
2893;DHT22;1456;51.840;12.184;2023-03-07T08:15:41;4.30;99.90
2893;DHT22;1456;51.840;12.184;2023-03-07T08:18:07;4.50;99.90
2893;DHT22;1456;51.840;12.184;2023-03-07T08:20:36;4.50;99.90
2893;DHT22;1456;51.840;12.184;2023-03-07T08:23:04;4.50;99.90
2893;DHT22;1456;51.840;12.184;2023-03-07T08:25:30;4.60;99.90
2893;DHT22;1456;51.840;12.184;2023-03-07T08:27:57;4.70;99.90
2893;DHT22;1456;51.840;12.184;2023-03-07T08:30:26;4.60;99.90
2893;DHT22;1456;51.840;12.184;2023-03-07T08:32:52;4.70;99.90
2893;DHT22;1456;51.840;12.184;2023-03-07T08:35:19;4.80;99.90
2893;DHT22;1456;51.840;12.184;2023-03-07T08:37:46;4.70;99.90
2893;DHT22;1456;51.840;12.184;2023-03-07T08:40:15;4.70;99.90
2893;DHT22;1456;51.840;12.184;2023-03-07T08:42:43;4.80;99.90
2893;DHT22;1456;51.840;12.184;2023-03-07T08:45:09;4.90;99.90
2893;DHT22;1456;51.840;12.184;2023-03-07T08:47:36;4.90;99.90
2893;DHT22;1456;51.840;12.184;2023-03-07T08:50:03;5.00;99.90
2893;DHT22;1456;51.840;12.184;2023-03-07T08:52:30;5.20;99.90
2893;DHT22;1456;51.840;12.184;2023-03-07T08:54:56;5.20;99.90
2893;DHT22;1456;51.840;12.184;2023-03-07T08:57:23;5.20;99.90
2893;DHT22;1456;51.840;12.184;2023-03-07T08:59:49;5.30;99.90
2893;DHT22;1456;51.840;12.184;2023-03-07T09:02:15;5.30;99.90
2893;DHT22;1456;51.840;12.184;2023-03-07T09:04:41;5.40;99.90
2893;DHT22;1456;51.840;12.184;2023-03-07T09:07:07;5.40;99.90
2893;DHT22;1456;51.840;12.184;2023-03-07T09:09:33;5.50;99.90
2893;DHT22;1456;51.840;12.184;2023-03-07T09:11:59;5.60;99.90
2893;DHT22;1456;51.840;12.184;2023-03-07T09:14:24;5.70;99.90
2893;DHT22;1456;51.840;12.184;2023-03-07T09:16:50;5.60;99.90
2893;DHT22;1456;51.840;12.184;2023-03-07T09:19:15;5.70;99.90
2893;DHT22;1456;51.840;12.184;2023-03-07T09:21:42;5.50;99.90
2893;DHT22;1456;51.840;12.184;2023-03-07T09:24:07;5.40;99.90
2893;DHT22;1456;51.840;12.184;2023-03-07T09:26:34;5.40;99.90
2893;DHT22;1456;51.840;12.184;2023-03-07T09:29:01;5.40;99.90
2893;DHT22;1456;51.840;12.184;2023-03-07T09:31:26;5.60;99.90
2893;DHT22;1456;51.840;12.184;2023-03-07T09:33:53;5.80;99.90
2893;DHT22;1456;51.840;12.184;2023-03-07T09:36:20;5.90;99.90
2893;DHT22;1456;51.840;12.184;2023-03-07T09:38:46;6.00;99.90
2893;DHT22;1456;51.840;12.184;2023-03-07T09:47:19;5.60;99.90
2893;DHT22;1456;51.840;12.184;2023-03-07T09:49:51;5.40;99.90
2893;DHT22;1456;51.840;12.184;2023-03-07T09:52:20;5.30;99.90
2893;DHT22;1456;51.840;12.184;2023-03-07T09:54:52;5.30;99.90
2893;DHT22;1456;51.840;12.184;2023-03-07T09:57:23;5.30;99.90
2893;DHT22;1456;51.840;12.184;2023-03-07T10:00:13;5.10;99.90
2893;DHT22;1456;51.840;12.184;2023-03-07T10:02:53;5.30;99.90
2893;DHT22;1456;51.840;12.184;2023-03-07T10:05:30;5.40;99.90
2893;DHT22;1456;51.840;12.184;2023-03-07T10:08:00;5.50;99.90
2893;DHT22;1456;51.840;12.184;2023-03-07T10:10:31;5.70;99.90
2893;DHT22;1456;51.840;12.184;2023-03-07T10:25:52;5.60;99.90
2893;DHT22;1456;51.840;12.184;2023-03-07T10:28:25;5.60;99.90
2893;DHT22;1456;51.840;12.184;2023-03-07T10:30:53;5.60;99.90
2893;DHT22;1456;51.840;12.184;2023-03-07T10:33:22;5.50;99.90
2893;DHT22;1456;51.840;12.184;2023-03-07T10:36:02;5.50;99.90
2893;DHT22;1456;51.840;12.184;2023-03-07T10:38:36;5.40;99.90
2893;DHT22;1456;51.840;12.184;2023-03-07T10:41:07;5.40;99.90
2893;DHT22;1456;51.840;12.184;2023-03-07T10:43:34;5.40;99.90
2893;DHT22;1456;51.840;12.184;2023-03-07T10:46:12;5.40;99.90
2893;DHT22;1456;51.840;12.184;2023-03-07T10:48:41;5.40;99.90
2893;DHT22;1456;51.840;12.184;2023-03-07T10:51:31;5.30;99.90
2893;DHT22;1456;51.840;12.184;2023-03-07T10:54:01;5.30;99.90
2893;DHT22;1456;51.840;12.184;2023-03-07T10:56:28;5.30;99.90
2893;DHT22;1456;51.840;12.184;2023-03-07T10:59:11;5.20;99.90
2893;DHT22;1456;51.840;12.184;2023-03-07T11:01:50;5.20;99.90
2893;DHT22;1456;51.840;12.184;2023-03-07T11:04:21;5.30;99.90
2893;DHT22;1456;51.840;12.184;2023-03-07T11:06:51;5.30;99.90
2893;DHT22;1456;51.840;12.184;2023-03-07T11:11:56;5.30;99.90
2893;DHT22;1456;51.840;12.184;2023-03-07T11:14:23;5.30;99.90
2893;DHT22;1456;51.840;12.184;2023-03-07T11:17:00;5.40;99.90
2893;DHT22;1456;51.840;12.184;2023-03-07T11:21:52;5.60;99.90
2893;DHT22;1456;51.840;12.184;2023-03-07T11:24:27;5.60;99.90
2893;DHT22;1456;51.840;12.184;2023-03-07T11:26:58;5.60;99.90
2893;DHT22;1456;51.840;12.184;2023-03-07T11:29:24;5.70;99.90
2893;DHT22;1456;51.840;12.184;2023-03-07T11:42:41;5.80;99.90
2893;DHT22;1456;51.840;12.184;2023-03-07T11:48:23;5.60;99.90
2893;DHT22;1456;51.840;12.184;2023-03-07T11:50:55;5.50;99.90
2893;DHT22;1456;51.840;12.184;2023-03-07T11:53:41;5.40;99.90
2893;DHT22;1456;51.840;12.184;2023-03-07T12:25:51;2.40;99.90
2893;DHT22;1456;51.840;12.184;2023-03-07T12:36:09;1.90;99.90
2893;DHT22;1456;51.840;12.184;2023-03-07T12:39:03;1.90;99.90
2893;DHT22;1456;51.840;12.184;2023-03-07T12:53:12;1.70;99.90
2893;DHT22;1456;51.840;12.184;2023-03-07T12:55:54;1.70;99.90
2893;DHT22;1456;51.840;12.184;2023-03-07T13:01:02;1.80;99.90
2893;DHT22;1456;51.840;12.184;2023-03-07T13:06:14;1.90;99.90
2893;DHT22;1456;51.840;12.184;2023-03-07T13:08:47;1.80;99.90
2893;DHT22;1456;51.840;12.184;2023-03-07T13:11:28;1.80;99.90
2893;DHT22;1456;51.840;12.184;2023-03-07T13:13:57;1.80;99.90
2893;DHT22;1456;51.840;12.184;2023-03-07T13:16:33;1.80;99.90
2893;DHT22;1456;51.840;12.184;2023-03-07T13:22:02;1.90;99.90
2893;DHT22;1456;51.840;12.184;2023-03-07T13:24:37;1.90;99.90
2893;DHT22;1456;51.840;12.184;2023-03-07T13:27:13;2.10;99.90
2893;DHT22;1456;51.840;12.184;2023-03-07T13:40:25;2.30;99.90
2893;DHT22;1456;51.840;12.184;2023-03-07T13:42:51;2.20;99.90
2893;DHT22;1456;51.840;12.184;2023-03-07T13:48:03;2.10;99.90
2893;DHT22;1456;51.840;12.184;2023-03-07T13:52:58;1.90;99.90
2893;DHT22;1456;51.840;12.184;2023-03-07T13:55:27;1.80;99.90
2893;DHT22;1456;51.840;12.184;2023-03-07T13:57:53;1.80;99.90
2893;DHT22;1456;51.840;12.184;2023-03-07T14:00:25;1.80;99.90
2893;DHT22;1456;51.840;12.184;2023-03-07T14:02:55;1.70;99.90
2893;DHT22;1456;51.840;12.184;2023-03-07T14:05:21;1.80;99.90
2893;DHT22;1456;51.840;12.184;2023-03-07T14:07:48;1.80;99.90
2893;DHT22;1456;51.840;12.184;2023-03-07T14:12:59;1.70;99.90
2893;DHT22;1456;51.840;12.184;2023-03-07T14:15:53;1.70;99.90
2893;DHT22;1456;51.840;12.184;2023-03-07T14:21:06;1.50;99.90
2893;DHT22;1456;51.840;12.184;2023-03-07T14:26:35;1.60;99.90
2893;DHT22;1456;51.840;12.184;2023-03-07T14:31:38;1.70;99.90
2893;DHT22;1456;51.840;12.184;2023-03-07T14:34:14;1.70;99.90
2893;DHT22;1456;51.840;12.184;2023-03-07T14:36:40;1.70;99.90
2893;DHT22;1456;51.840;12.184;2023-03-07T14:39:10;1.80;99.90
2893;DHT22;1456;51.840;12.184;2023-03-07T14:41:39;1.80;99.90
2893;DHT22;1456;51.840;12.184;2023-03-07T14:49:25;1.80;99.90
2893;DHT22;1456;51.840;12.184;2023-03-07T14:51:54;1.90;99.90
2893;DHT22;1456;51.840;12.184;2023-03-07T14:54:21;1.80;99.90
2893;DHT22;1456;51.840;12.184;2023-03-07T14:56:51;1.90;99.90
2893;DHT22;1456;51.840;12.184;2023-03-07T14:59:18;2.00;99.90
2893;DHT22;1456;51.840;12.184;2023-03-07T15:01:46;2.10;99.90
2893;DHT22;1456;51.840;12.184;2023-03-07T15:06:46;2.20;99.90
2893;DHT22;1456;51.840;12.184;2023-03-07T15:09:16;2.20;99.90
2893;DHT22;1456;51.840;12.184;2023-03-07T15:11:43;2.10;99.90
2893;DHT22;1456;51.840;12.184;2023-03-07T15:14:19;2.00;99.90
2893;DHT22;1456;51.840;12.184;2023-03-07T15:16:51;2.10;99.90
2893;DHT22;1456;51.840;12.184;2023-03-07T15:19:25;2.10;99.90
2893;DHT22;1456;51.840;12.184;2023-03-07T15:21:54;2.10;99.90
2893;DHT22;1456;51.840;12.184;2023-03-07T15:24:28;2.10;99.90
2893;DHT22;1456;51.840;12.184;2023-03-07T15:26:56;2.10;99.90
2893;DHT22;1456;51.840;12.184;2023-03-07T15:29:33;2.20;99.90
2893;DHT22;1456;51.840;12.184;2023-03-07T15:32:03;2.20;99.90
2893;DHT22;1456;51.840;12.184;2023-03-07T15:34:38;2.30;99.90
2893;DHT22;1456;51.840;12.184;2023-03-07T15:37:20;2.30;99.90
2893;DHT22;1456;51.840;12.184;2023-03-07T15:42:28;2.20;99.90
2893;DHT22;1456;51.840;12.184;2023-03-07T15:44:57;2.20;99.90
2893;DHT22;1456;51.840;12.184;2023-03-07T15:47:23;2.10;99.90
2893;DHT22;1456;51.840;12.184;2023-03-07T15:49:53;2.20;99.90
2893;DHT22;1456;51.840;12.184;2023-03-07T15:52:34;2.20;99.90
2893;DHT22;1456;51.840;12.184;2023-03-07T15:55:01;2.30;99.90
2893;DHT22;1456;51.840;12.184;2023-03-07T16:00:05;2.30;99.90
2893;DHT22;1456;51.840;12.184;2023-03-07T16:02:36;2.30;99.90
2893;DHT22;1456;51.840;12.184;2023-03-07T16:07:56;2.40;99.90
2893;DHT22;1456;51.840;12.184;2023-03-07T16:10:26;2.40;99.90
2893;DHT22;1456;51.840;12.184;2023-03-07T16:12:53;2.30;99.90
2893;DHT22;1456;51.840;12.184;2023-03-07T16:15:21;2.20;99.90
2893;DHT22;1456;51.840;12.184;2023-03-07T16:17:50;2.10;99.90
2893;DHT22;1456;51.840;12.184;2023-03-07T16:20:24;2.10;99.90
2893;DHT22;1456;51.840;12.184;2023-03-07T16:22:50;2.20;99.90
2893;DHT22;1456;51.840;12.184;2023-03-07T16:25:17;2.10;99.90
2893;DHT22;1456;51.840;12.184;2023-03-07T16:27:54;2.10;99.90
2893;DHT22;1456;51.840;12.184;2023-03-07T16:30:25;2.10;99.90
2893;DHT22;1456;51.840;12.184;2023-03-07T16:32:51;2.10;99.90
2893;DHT22;1456;51.840;12.184;2023-03-07T16:35:18;2.10;99.90
2893;DHT22;1456;51.840;12.184;2023-03-07T16:37:44;2.00;99.90
2893;DHT22;1456;51.840;12.184;2023-03-07T16:40:10;1.90;99.90
2893;DHT22;1456;51.840;12.184;2023-03-07T16:42:36;2.00;99.90
2893;DHT22;1456;51.840;12.184;2023-03-07T16:45:06;2.00;99.90
2893;DHT22;1456;51.840;12.184;2023-03-07T16:47:35;1.90;99.90
2893;DHT22;1456;51.840;12.184;2023-03-07T16:50:01;2.00;99.90
2893;DHT22;1456;51.840;12.184;2023-03-07T16:52:27;2.00;99.90
2893;DHT22;1456;51.840;12.184;2023-03-07T16:54:52;1.90;99.90
2893;DHT22;1456;51.840;12.184;2023-03-07T16:57:19;1.90;99.90
2893;DHT22;1456;51.840;12.184;2023-03-07T16:59:45;2.00;99.90
2893;DHT22;1456;51.840;12.184;2023-03-07T17:02:18;2.00;99.90
2893;DHT22;1456;51.840;12.184;2023-03-07T17:04:45;2.00;99.90
2893;DHT22;1456;51.840;12.184;2023-03-07T17:07:18;1.90;99.90
2893;DHT22;1456;51.840;12.184;2023-03-07T17:09:44;1.80;99.90
2893;DHT22;1456;51.840;12.184;2023-03-07T17:12:10;1.90;99.90
2893;DHT22;1456;51.840;12.184;2023-03-07T17:14:36;1.90;99.90
2893;DHT22;1456;51.840;12.184;2023-03-07T17:17:02;2.00;99.90
2893;DHT22;1456;51.840;12.184;2023-03-07T17:19:31;2.00;99.90
2893;DHT22;1456;51.840;12.184;2023-03-07T17:21:59;2.10;99.90
2893;DHT22;1456;51.840;12.184;2023-03-07T17:24:26;2.10;99.90
2893;DHT22;1456;51.840;12.184;2023-03-07T17:26:51;2.10;99.90
2893;DHT22;1456;51.840;12.184;2023-03-07T17:29:25;2.20;99.90
2893;DHT22;1456;51.840;12.184;2023-03-07T17:31:53;2.20;99.90
2893;DHT22;1456;51.840;12.184;2023-03-07T17:36:54;2.20;99.90
2893;DHT22;1456;51.840;12.184;2023-03-07T17:39:20;2.20;99.90
2893;DHT22;1456;51.840;12.184;2023-03-07T17:41:47;2.20;99.90
2893;DHT22;1456;51.840;12.184;2023-03-07T17:44:13;2.10;99.90
2893;DHT22;1456;51.840;12.184;2023-03-07T17:46:40;2.00;99.90
2893;DHT22;1456;51.840;12.184;2023-03-07T17:49:06;2.00;99.90
2893;DHT22;1456;51.840;12.184;2023-03-07T17:51:33;1.90;99.90
2893;DHT22;1456;51.840;12.184;2023-03-07T17:54:00;2.00;99.90
2893;DHT22;1456;51.840;12.184;2023-03-07T17:56:28;2.00;99.90
2893;DHT22;1456;51.840;12.184;2023-03-07T17:58:54;2.00;99.90
2893;DHT22;1456;51.840;12.184;2023-03-07T18:01:19;1.90;99.90
2893;DHT22;1456;51.840;12.184;2023-03-07T18:03:45;1.80;99.90
2893;DHT22;1456;51.840;12.184;2023-03-07T18:06:11;1.70;99.90
2893;DHT22;1456;51.840;12.184;2023-03-07T18:08:38;1.80;99.90
2893;DHT22;1456;51.840;12.184;2023-03-07T18:11:09;1.60;99.90
2893;DHT22;1456;51.840;12.184;2023-03-07T18:13:36;1.60;99.90
2893;DHT22;1456;51.840;12.184;2023-03-07T18:16:01;1.70;99.90
2893;DHT22;1456;51.840;12.184;2023-03-07T18:18:34;1.70;99.90
2893;DHT22;1456;51.840;12.184;2023-03-07T18:21:05;1.60;99.90
2893;DHT22;1456;51.840;12.184;2023-03-07T18:23:31;1.60;99.90
2893;DHT22;1456;51.840;12.184;2023-03-07T18:26:01;1.60;99.90
2893;DHT22;1456;51.840;12.184;2023-03-07T18:28:28;1.50;99.90
2893;DHT22;1456;51.840;12.184;2023-03-07T18:30:58;1.50;99.90
2893;DHT22;1456;51.840;12.184;2023-03-07T18:33:27;1.50;99.90
2893;DHT22;1456;51.840;12.184;2023-03-07T18:35:54;1.60;99.90
2893;DHT22;1456;51.840;12.184;2023-03-07T18:38:21;1.60;99.90